Hauptseite
METAR-TAF:

METAR-TAF

Flughäfen :

Flughafen Dubai

Dubai, Vereinigte Arabische Emirate

Breite: 25-15-10N, Länge: 055-21-52E, Höhe: 8 m

Beobachtung

Neuester Wetterbericht von vor 50 Minuten, um 18:00 UTC
Wind 8 kt aus West, variierte zwischen Südwest und Nord/Nordwest
Temperatur 20°C
Luftfeuchtigkeit 60%
Luftdruck 1017 hPa
Sichtweite 10 km oder mehr
Aufgelockert bewölkt in der Höhe von 3300 ft

METAR: OMDB 181800Z 26008KT 220V330 9999 SCT033 20/12 Q1017 NOSIG

Zeit: 22:50 (18:50 UTC)

Prognose

Neuester Wetterbericht von vor 1 Stunde und 47 Minuten, um 17:03 UTC
Gültige Prognose vom 18 um 18 UTC bis 20 um 00 UTC
Wind 12 kt aus West
Sichtweite 10 km oder mehr
keine Wolken unter 1500 m und keine Kumulonimbus oder Gewitterwolken
Wahrscheinlichkeit 30%
vom 18 um 22 UTC bis 19 um 05 UTC
Wind 5 kt aus Süd/Südwest

TAF: OMDB 181703Z 1818/2000 27012KT CAVOK PROB30 1822/1905 21005KT

Wetterbeobachtungen und Prognosen von mehr als 4000 Flughäfen (METAR und TAF Bericht).

Die verfügbaren Stationen werden durch gelbe und rote Markierungen auf der Karte dargestellt.

Führen Sie die Maus auf sie, um den Namen der Station zu sehen.

Darauf klicken, um die Beobachtung von Wetterbeobachtungen und Prognosen zu sehen.

Um die Karte zu ändern : klicken Sie auf den grünen Tasten mit einem schwarzen Kreuz Zum Vergrößern, auf den grünen Button mit einem Gedankenstrich zu verkleinern, oder auf die grünen Pfeile für benachbarte Karten.


METAR-TAF: